sensor_id;sensor_type;location;lat;lon;timestamp;P1;durP1;ratioP1;P2;durP2;ratioP2
4450;SDS011;2238;50.180;9.230;2022-07-12T00:00:17;2.37;;;2.07;;
4450;SDS011;2238;50.180;9.230;2022-07-12T00:03:18;1.50;;;1.40;;
4450;SDS011;2238;50.180;9.230;2022-07-12T00:06:19;1.50;;;1.40;;
4450;SDS011;2238;50.180;9.230;2022-07-12T00:09:19;1.60;;;1.50;;
4450;SDS011;2238;50.180;9.230;2022-07-12T00:12:20;1.60;;;1.50;;
4450;SDS011;2238;50.180;9.230;2022-07-12T00:15:20;1.60;;;1.50;;
4450;SDS011;2238;50.180;9.230;2022-07-12T00:18:21;1.63;;;1.30;;
4450;SDS011;2238;50.180;9.230;2022-07-12T00:21:22;1.87;;;1.77;;
4450;SDS011;2238;50.180;9.230;2022-07-12T00:24:23;1.80;;;1.70;;
4450;SDS011;2238;50.180;9.230;2022-07-12T00:27:23;5.87;;;4.90;;
4450;SDS011;2238;50.180;9.230;2022-07-12T00:30:24;7.43;;;6.60;;
4450;SDS011;2238;50.180;9.230;2022-07-12T00:33:24;8.77;;;7.20;;
4450;SDS011;2238;50.180;9.230;2022-07-12T00:36:26;7.53;;;6.60;;
4450;SDS011;2238;50.180;9.230;2022-07-12T00:39:26;7.63;;;6.77;;
4450;SDS011;2238;50.180;9.230;2022-07-12T00:42:27;6.30;;;5.70;;
4450;SDS011;2238;50.180;9.230;2022-07-12T00:45:27;6.30;;;5.70;;
4450;SDS011;2238;50.180;9.230;2022-07-12T00:48:28;7.27;;;5.30;;
4450;SDS011;2238;50.180;9.230;2022-07-12T00:51:30;7.20;;;5.70;;
4450;SDS011;2238;50.180;9.230;2022-07-12T00:54:31;6.90;;;6.13;;
4450;SDS011;2238;50.180;9.230;2022-07-12T00:57:32;6.57;;;5.77;;
4450;SDS011;2238;50.180;9.230;2022-07-12T01:00:33;5.87;;;5.30;;
4450;SDS011;2238;50.180;9.230;2022-07-12T01:03:34;6.07;;;5.47;;
4450;SDS011;2238;50.180;9.230;2022-07-12T01:06:35;5.90;;;4.77;;
4450;SDS011;2238;50.180;9.230;2022-07-12T01:09:36;4.77;;;4.23;;
4450;SDS011;2238;50.180;9.230;2022-07-12T01:12:38;5.17;;;4.77;;
4450;SDS011;2238;50.180;9.230;2022-07-12T01:15:39;4.00;;;3.70;;
4450;SDS011;2238;50.180;9.230;2022-07-12T01:18:40;5.63;;;5.13;;
4450;SDS011;2238;50.180;9.230;2022-07-12T01:21:44;6.97;;;4.67;;
4450;SDS011;2238;50.180;9.230;2022-07-12T01:24:48;5.80;;;5.20;;
4450;SDS011;2238;50.180;9.230;2022-07-12T01:27:49;4.40;;;4.00;;
4450;SDS011;2238;50.180;9.230;2022-07-12T01:30:50;5.00;;;4.60;;
4450;SDS011;2238;50.180;9.230;2022-07-12T01:33:50;3.50;;;3.10;;
4450;SDS011;2238;50.180;9.230;2022-07-12T01:36:51;2.90;;;2.70;;
4450;SDS011;2238;50.180;9.230;2022-07-12T01:39:53;5.50;;;3.27;;
4450;SDS011;2238;50.180;9.230;2022-07-12T01:42:54;3.47;;;3.10;;
4450;SDS011;2238;50.180;9.230;2022-07-12T01:45:55;2.50;;;2.30;;
4450;SDS011;2238;50.180;9.230;2022-07-12T01:48:56;1.93;;;1.83;;
4450;SDS011;2238;50.180;9.230;2022-07-12T01:51:57;2.33;;;2.20;;
4450;SDS011;2238;50.180;9.230;2022-07-12T01:54:58;2.10;;;2.00;;
4450;SDS011;2238;50.180;9.230;2022-07-12T01:57:59;1.93;;;1.83;;
4450;SDS011;2238;50.180;9.230;2022-07-12T02:01:00;3.30;;;2.07;;
4450;SDS011;2238;50.180;9.230;2022-07-12T02:04:04;2.73;;;2.53;;
4450;SDS011;2238;50.180;9.230;2022-07-12T02:07:05;2.57;;;2.47;;
4450;SDS011;2238;50.180;9.230;2022-07-12T02:10:06;2.50;;;2.30;;
4450;SDS011;2238;50.180;9.230;2022-07-12T02:13:07;2.83;;;2.37;;
4450;SDS011;2238;50.180;9.230;2022-07-12T02:16:08;2.60;;;2.40;;
4450;SDS011;2238;50.180;9.230;2022-07-12T02:19:10;2.30;;;2.10;;
4450;SDS011;2238;50.180;9.230;2022-07-12T02:22:11;2.57;;;2.37;;
4450;SDS011;2238;50.180;9.230;2022-07-12T02:25:12;2.53;;;2.37;;
4450;SDS011;2238;50.180;9.230;2022-07-12T02:28:12;5.17;;;2.63;;
4450;SDS011;2238;50.180;9.230;2022-07-12T02:31:13;2.60;;;2.40;;
4450;SDS011;2238;50.180;9.230;2022-07-12T02:34:14;3.77;;;2.37;;
4450;SDS011;2238;50.180;9.230;2022-07-12T02:37:14;2.53;;;2.33;;
4450;SDS011;2238;50.180;9.230;2022-07-12T02:40:15;2.57;;;2.37;;
4450;SDS011;2238;50.180;9.230;2022-07-12T02:43:34;2.50;;;2.30;;
4450;SDS011;2238;50.180;9.230;2022-07-12T02:46:35;2.73;;;2.53;;
4450;SDS011;2238;50.180;9.230;2022-07-12T02:49:36;3.00;;;2.70;;
4450;SDS011;2238;50.180;9.230;2022-07-12T02:52:36;3.07;;;2.87;;
4450;SDS011;2238;50.180;9.230;2022-07-12T02:55:37;7.23;;;2.80;;
4450;SDS011;2238;50.180;9.230;2022-07-12T02:58:38;3.30;;;3.10;;
4450;SDS011;2238;50.180;9.230;2022-07-12T03:01:39;3.00;;;2.80;;
4450;SDS011;2238;50.180;9.230;2022-07-12T03:04:39;3.43;;;2.93;;
4450;SDS011;2238;50.180;9.230;2022-07-12T03:07:40;3.00;;;2.80;;
4450;SDS011;2238;50.180;9.230;2022-07-12T03:10:41;2.83;;;2.57;;
4450;SDS011;2238;50.180;9.230;2022-07-12T03:13:42;3.00;;;2.80;;
4450;SDS011;2238;50.180;9.230;2022-07-12T03:16:42;2.80;;;2.60;;
4450;SDS011;2238;50.180;9.230;2022-07-12T03:19:43;3.10;;;2.90;;
4450;SDS011;2238;50.180;9.230;2022-07-12T03:22:43;3.80;;;3.50;;
4450;SDS011;2238;50.180;9.230;2022-07-12T03:25:47;5.00;;;4.50;;
4450;SDS011;2238;50.180;9.230;2022-07-12T03:28:47;4.73;;;4.30;;
4450;SDS011;2238;50.180;9.230;2022-07-12T03:31:48;3.70;;;3.50;;
4450;SDS011;2238;50.180;9.230;2022-07-12T03:34:49;2.83;;;2.63;;
4450;SDS011;2238;50.180;9.230;2022-07-12T03:37:50;2.67;;;2.53;;
4450;SDS011;2238;50.180;9.230;2022-07-12T03:40:51;2.30;;;2.20;;
4450;SDS011;2238;50.180;9.230;2022-07-12T03:43:52;3.00;;;2.80;;
4450;SDS011;2238;50.180;9.230;2022-07-12T03:46:53;3.20;;;3.00;;
4450;SDS011;2238;50.180;9.230;2022-07-12T03:49:55;3.10;;;2.90;;
4450;SDS011;2238;50.180;9.230;2022-07-12T03:52:56;3.77;;;3.37;;
4450;SDS011;2238;50.180;9.230;2022-07-12T03:55:56;3.20;;;3.00;;
4450;SDS011;2238;50.180;9.230;2022-07-12T03:58:57;4.07;;;3.73;;
4450;SDS011;2238;50.180;9.230;2022-07-12T04:01:57;8.10;;;7.40;;
4450;SDS011;2238;50.180;9.230;2022-07-12T04:04:58;16.63;;;15.23;;
4450;SDS011;2238;50.180;9.230;2022-07-12T04:07:59;15.80;;;14.40;;
4450;SDS011;2238;50.180;9.230;2022-07-12T04:11:01;37.97;;;34.90;;
4450;SDS011;2238;50.180;9.230;2022-07-12T04:14:02;45.77;;;42.27;;
4450;SDS011;2238;50.180;9.230;2022-07-12T04:17:03;50.00;;;45.80;;
4450;SDS011;2238;50.180;9.230;2022-07-12T04:20:05;54.20;;;50.00;;
4450;SDS011;2238;50.180;9.230;2022-07-12T04:23:06;53.40;;;48.97;;
4450;SDS011;2238;50.180;9.230;2022-07-12T04:26:09;47.23;;;43.53;;
4450;SDS011;2238;50.180;9.230;2022-07-12T04:29:09;46.13;;;42.30;;
4450;SDS011;2238;50.180;9.230;2022-07-12T04:32:10;39.43;;;36.27;;
4450;SDS011;2238;50.180;9.230;2022-07-12T04:35:10;34.33;;;31.50;;
4450;SDS011;2238;50.180;9.230;2022-07-12T04:38:11;27.43;;;25.13;;
4450;SDS011;2238;50.180;9.230;2022-07-12T04:41:12;24.80;;;22.70;;
4450;SDS011;2238;50.180;9.230;2022-07-12T04:44:12;18.97;;;17.50;;
4450;SDS011;2238;50.180;9.230;2022-07-12T04:47:13;16.77;;;15.37;;
4450;SDS011;2238;50.180;9.230;2022-07-12T04:50:13;16.10;;;14.50;;
4450;SDS011;2238;50.180;9.230;2022-07-12T04:53:14;14.90;;;13.77;;
4450;SDS011;2238;50.180;9.230;2022-07-12T04:56:15;14.40;;;13.23;;
4450;SDS011;2238;50.180;9.230;2022-07-12T04:59:15;14.43;;;13.30;;
4450;SDS011;2238;50.180;9.230;2022-07-12T05:02:16;13.83;;;12.60;;
4450;SDS011;2238;50.180;9.230;2022-07-12T05:05:16;14.90;;;13.60;;
4450;SDS011;2238;50.180;9.230;2022-07-12T05:08:17;13.80;;;12.80;;
4450;SDS011;2238;50.180;9.230;2022-07-12T05:11:18;15.53;;;14.23;;
4450;SDS011;2238;50.180;9.230;2022-07-12T05:14:19;16.87;;;15.27;;
4450;SDS011;2238;50.180;9.230;2022-07-12T05:17:20;17.10;;;15.53;;
4450;SDS011;2238;50.180;9.230;2022-07-12T05:20:20;16.20;;;14.63;;
4450;SDS011;2238;50.180;9.230;2022-07-12T05:23:21;14.83;;;13.73;;
4450;SDS011;2238;50.180;9.230;2022-07-12T05:26:21;14.23;;;13.17;;
4450;SDS011;2238;50.180;9.230;2022-07-12T05:29:22;14.57;;;13.37;;
4450;SDS011;2238;50.180;9.230;2022-07-12T05:32:23;14.23;;;13.00;;
4450;SDS011;2238;50.180;9.230;2022-07-12T05:35:23;13.50;;;12.40;;
4450;SDS011;2238;50.180;9.230;2022-07-12T05:38:24;10.50;;;9.60;;
4450;SDS011;2238;50.180;9.230;2022-07-12T05:41:25;11.47;;;10.60;;
4450;SDS011;2238;50.180;9.230;2022-07-12T05:44:26;10.73;;;9.83;;
4450;SDS011;2238;50.180;9.230;2022-07-12T05:47:26;11.73;;;6.33;;
4450;SDS011;2238;50.180;9.230;2022-07-12T05:50:28;7.23;;;6.63;;
4450;SDS011;2238;50.180;9.230;2022-07-12T05:53:29;7.43;;;6.93;;
4450;SDS011;2238;50.180;9.230;2022-07-12T05:56:29;8.90;;;8.10;;
4450;SDS011;2238;50.180;9.230;2022-07-12T05:59:30;8.83;;;8.00;;
4450;SDS011;2238;50.180;9.230;2022-07-12T06:02:31;7.87;;;7.27;;
4450;SDS011;2238;50.180;9.230;2022-07-12T06:05:31;6.27;;;5.87;;
4450;SDS011;2238;50.180;9.230;2022-07-12T06:08:32;5.57;;;5.07;;
4450;SDS011;2238;50.180;9.230;2022-07-12T06:11:33;6.00;;;5.50;;
4450;SDS011;2238;50.180;9.230;2022-07-12T06:14:33;5.70;;;5.17;;
4450;SDS011;2238;50.180;9.230;2022-07-12T06:17:34;5.67;;;5.17;;
4450;SDS011;2238;50.180;9.230;2022-07-12T06:20:35;5.83;;;5.43;;
4450;SDS011;2238;50.180;9.230;2022-07-12T06:23:35;6.20;;;5.50;;
4450;SDS011;2238;50.180;9.230;2022-07-12T06:26:36;5.07;;;4.67;;
4450;SDS011;2238;50.180;9.230;2022-07-12T06:29:37;5.60;;;4.40;;
4450;SDS011;2238;50.180;9.230;2022-07-12T06:32:37;5.67;;;5.27;;
4450;SDS011;2238;50.180;9.230;2022-07-12T06:35:38;6.00;;;5.50;;
4450;SDS011;2238;50.180;9.230;2022-07-12T06:38:38;5.47;;;4.97;;
4450;SDS011;2238;50.180;9.230;2022-07-12T06:41:39;4.37;;;4.07;;
4450;SDS011;2238;50.180;9.230;2022-07-12T06:44:39;5.07;;;4.50;;
4450;SDS011;2238;50.180;9.230;2022-07-12T06:47:40;4.70;;;4.30;;
4450;SDS011;2238;50.180;9.230;2022-07-12T06:50:41;4.60;;;4.20;;
4450;SDS011;2238;50.180;9.230;2022-07-12T06:53:42;4.10;;;3.70;;
4450;SDS011;2238;50.180;9.230;2022-07-12T06:56:42;4.67;;;3.37;;
4450;SDS011;2238;50.180;9.230;2022-07-12T06:59:43;3.53;;;3.33;;
4450;SDS011;2238;50.180;9.230;2022-07-12T07:02:44;3.27;;;3.07;;
4450;SDS011;2238;50.180;9.230;2022-07-12T07:05:45;5.20;;;4.00;;
4450;SDS011;2238;50.180;9.230;2022-07-12T07:08:45;3.47;;;3.17;;
4450;SDS011;2238;50.180;9.230;2022-07-12T07:11:46;3.60;;;3.30;;
4450;SDS011;2238;50.180;9.230;2022-07-12T07:14:46;5.20;;;4.70;;
4450;SDS011;2238;50.180;9.230;2022-07-12T07:17:48;7.10;;;6.10;;
4450;SDS011;2238;50.180;9.230;2022-07-12T07:20:50;6.80;;;6.20;;
4450;SDS011;2238;50.180;9.230;2022-07-12T07:23:51;5.73;;;5.23;;
4450;SDS011;2238;50.180;9.230;2022-07-12T07:26:52;7.33;;;6.30;;
4450;SDS011;2238;50.180;9.230;2022-07-12T07:29:53;7.10;;;6.50;;
4450;SDS011;2238;50.180;9.230;2022-07-12T07:33:12;4.43;;;4.13;;
4450;SDS011;2238;50.180;9.230;2022-07-12T07:36:13;5.30;;;4.90;;
4450;SDS011;2238;50.180;9.230;2022-07-12T07:39:13;3.30;;;3.10;;
4450;SDS011;2238;50.180;9.230;2022-07-12T07:42:14;2.70;;;2.50;;
4450;SDS011;2238;50.180;9.230;2022-07-12T07:45:14;2.50;;;1.90;;
4450;SDS011;2238;50.180;9.230;2022-07-12T07:48:15;2.00;;;1.90;;
4450;SDS011;2238;50.180;9.230;2022-07-12T07:51:16;2.30;;;2.20;;
4450;SDS011;2238;50.180;9.230;2022-07-12T07:54:17;2.60;;;1.67;;
4450;SDS011;2238;50.180;9.230;2022-07-12T07:57:17;1.63;;;1.53;;
4450;SDS011;2238;50.180;9.230;2022-07-12T08:00:18;1.53;;;1.43;;
4450;SDS011;2238;50.180;9.230;2022-07-12T08:03:19;1.20;;;1.10;;
4450;SDS011;2238;50.180;9.230;2022-07-12T08:06:20;1.57;;;1.47;;
4450;SDS011;2238;50.180;9.230;2022-07-12T08:09:20;1.00;;;1.00;;
4450;SDS011;2238;50.180;9.230;2022-07-12T08:12:21;1.80;;;1.70;;
4450;SDS011;2238;50.180;9.230;2022-07-12T08:15:21;1.90;;;1.60;;
4450;SDS011;2238;50.180;9.230;2022-07-12T08:18:22;1.50;;;1.40;;
4450;SDS011;2238;50.180;9.230;2022-07-12T08:21:23;1.87;;;1.77;;
4450;SDS011;2238;50.180;9.230;2022-07-12T08:24:24;1.57;;;1.47;;
4450;SDS011;2238;50.180;9.230;2022-07-12T08:27:25;2.20;;;2.10;;
4450;SDS011;2238;50.180;9.230;2022-07-12T08:30:25;2.20;;;2.00;;
4450;SDS011;2238;50.180;9.230;2022-07-12T08:33:27;1.50;;;1.40;;
4450;SDS011;2238;50.180;9.230;2022-07-12T08:36:27;2.03;;;1.93;;
4450;SDS011;2238;50.180;9.230;2022-07-12T08:39:28;2.03;;;1.93;;
4450;SDS011;2238;50.180;9.230;2022-07-12T08:42:28;2.10;;;2.00;;
4450;SDS011;2238;50.180;9.230;2022-07-12T08:45:29;1.90;;;1.80;;
4450;SDS011;2238;50.180;9.230;2022-07-12T08:48:29;2.17;;;1.97;;
4450;SDS011;2238;50.180;9.230;2022-07-12T08:51:30;2.10;;;1.90;;
4450;SDS011;2238;50.180;9.230;2022-07-12T08:54:39;2.00;;;1.90;;
4450;SDS011;2238;50.180;9.230;2022-07-12T08:57:40;2.13;;;1.73;;
4450;SDS011;2238;50.180;9.230;2022-07-12T09:00:41;2.10;;;1.90;;
4450;SDS011;2238;50.180;9.230;2022-07-12T09:03:41;1.87;;;1.70;;
4450;SDS011;2238;50.180;9.230;2022-07-12T09:06:42;2.80;;;2.10;;
4450;SDS011;2238;50.180;9.230;2022-07-12T09:09:43;2.00;;;1.90;;
4450;SDS011;2238;50.180;9.230;2022-07-12T09:12:44;2.23;;;1.60;;
4450;SDS011;2238;50.180;9.230;2022-07-12T09:15:44;2.67;;;1.83;;
4450;SDS011;2238;50.180;9.230;2022-07-12T09:18:48;2.70;;;1.90;;
4450;SDS011;2238;50.180;9.230;2022-07-12T09:21:51;1.90;;;1.70;;
4450;SDS011;2238;50.180;9.230;2022-07-12T09:24:52;2.13;;;1.93;;
4450;SDS011;2238;50.180;9.230;2022-07-12T09:27:54;1.53;;;1.43;;
4450;SDS011;2238;50.180;9.230;2022-07-12T09:30:56;2.13;;;1.60;;
4450;SDS011;2238;50.180;9.230;2022-07-12T09:34:00;2.03;;;1.93;;
4450;SDS011;2238;50.180;9.230;2022-07-12T09:37:21;1.60;;;1.50;;
4450;SDS011;2238;50.180;9.230;2022-07-12T09:40:23;1.70;;;1.60;;
4450;SDS011;2238;50.180;9.230;2022-07-12T09:43:23;1.60;;;1.50;;
4450;SDS011;2238;50.180;9.230;2022-07-12T09:46:25;2.03;;;1.50;;
4450;SDS011;2238;50.180;9.230;2022-07-12T09:49:26;5.60;;;2.43;;
4450;SDS011;2238;50.180;9.230;2022-07-12T09:52:29;2.87;;;2.67;;
4450;SDS011;2238;50.180;9.230;2022-07-12T09:55:32;2.80;;;2.60;;
4450;SDS011;2238;50.180;9.230;2022-07-12T09:58:39;2.60;;;2.40;;
4450;SDS011;2238;50.180;9.230;2022-07-12T10:01:47;2.23;;;2.13;;
4450;SDS011;2238;50.180;9.230;2022-07-12T10:04:48;2.77;;;2.57;;
4450;SDS011;2238;50.180;9.230;2022-07-12T10:07:50;2.23;;;1.90;;
4450;SDS011;2238;50.180;9.230;2022-07-12T10:10:51;1.90;;;1.80;;
4450;SDS011;2238;50.180;9.230;2022-07-12T10:34:26;3.80;;;1.77;;
4450;SDS011;2238;50.180;9.230;2022-07-12T10:37:29;2.30;;;2.07;;
4450;SDS011;2238;50.180;9.230;2022-07-12T10:40:34;2.20;;;2.10;;
4450;SDS011;2238;50.180;9.230;2022-07-12T10:43:34;1.97;;;1.70;;
4450;SDS011;2238;50.180;9.230;2022-07-12T10:46:58;3.50;;;1.80;;
4450;SDS011;2238;50.180;9.230;2022-07-12T10:50:00;2.20;;;2.00;;
4450;SDS011;2238;50.180;9.230;2022-07-12T10:53:19;1.80;;;1.70;;
4450;SDS011;2238;50.180;9.230;2022-07-12T10:56:26;2.27;;;2.17;;
4450;SDS011;2238;50.180;9.230;2022-07-12T10:59:27;2.70;;;1.70;;
4450;SDS011;2238;50.180;9.230;2022-07-12T11:02:30;2.50;;;2.30;;
4450;SDS011;2238;50.180;9.230;2022-07-12T11:05:31;1.70;;;1.60;;
4450;SDS011;2238;50.180;9.230;2022-07-12T11:08:46;1.90;;;1.80;;
4450;SDS011;2238;50.180;9.230;2022-07-12T11:11:52;1.77;;;1.67;;
4450;SDS011;2238;50.180;9.230;2022-07-12T11:14:53;1.60;;;1.50;;
4450;SDS011;2238;50.180;9.230;2022-07-12T11:17:53;1.27;;;1.27;;
4450;SDS011;2238;50.180;9.230;2022-07-12T11:20:56;1.80;;;1.70;;
4450;SDS011;2238;50.180;9.230;2022-07-12T11:23:57;1.63;;;1.53;;
4450;SDS011;2238;50.180;9.230;2022-07-12T11:26:58;2.20;;;1.77;;
4450;SDS011;2238;50.180;9.230;2022-07-12T11:30:00;1.70;;;1.60;;
4450;SDS011;2238;50.180;9.230;2022-07-12T11:33:02;1.63;;;1.53;;
4450;SDS011;2238;50.180;9.230;2022-07-12T11:36:03;1.70;;;1.60;;
4450;SDS011;2238;50.180;9.230;2022-07-12T11:39:06;1.50;;;1.50;;
4450;SDS011;2238;50.180;9.230;2022-07-12T11:42:07;1.10;;;1.10;;
4450;SDS011;2238;50.180;9.230;2022-07-12T11:45:10;1.77;;;1.67;;
4450;SDS011;2238;50.180;9.230;2022-07-12T11:48:15;1.47;;;1.40;;
4450;SDS011;2238;50.180;9.230;2022-07-12T11:51:16;1.73;;;1.63;;
4450;SDS011;2238;50.180;9.230;2022-07-12T11:54:17;1.50;;;1.40;;
4450;SDS011;2238;50.180;9.230;2022-07-12T11:57:21;1.93;;;1.83;;
4450;SDS011;2238;50.180;9.230;2022-07-12T12:00:23;2.13;;;1.80;;
4450;SDS011;2238;50.180;9.230;2022-07-12T12:03:24;1.53;;;1.30;;
4450;SDS011;2238;50.180;9.230;2022-07-12T12:06:25;1.70;;;1.60;;
4450;SDS011;2238;50.180;9.230;2022-07-12T12:09:26;1.40;;;1.40;;
4450;SDS011;2238;50.180;9.230;2022-07-12T12:12:48;1.53;;;1.43;;
4450;SDS011;2238;50.180;9.230;2022-07-12T12:15:49;2.20;;;1.23;;
4450;SDS011;2238;50.180;9.230;2022-07-12T12:18:51;2.93;;;1.47;;
4450;SDS011;2238;50.180;9.230;2022-07-12T12:21:52;1.40;;;1.37;;
4450;SDS011;2238;50.180;9.230;2022-07-12T12:24:59;1.67;;;1.57;;
4450;SDS011;2238;50.180;9.230;2022-07-12T12:28:01;1.60;;;1.50;;
4450;SDS011;2238;50.180;9.230;2022-07-12T12:31:03;1.50;;;1.40;;
4450;SDS011;2238;50.180;9.230;2022-07-12T12:34:09;1.87;;;1.57;;
4450;SDS011;2238;50.180;9.230;2022-07-12T12:37:11;1.20;;;1.10;;
4450;SDS011;2238;50.180;9.230;2022-07-12T12:40:12;1.70;;;1.60;;
4450;SDS011;2238;50.180;9.230;2022-07-12T12:43:19;1.27;;;1.20;;
4450;SDS011;2238;50.180;9.230;2022-07-12T12:46:20;1.20;;;1.17;;
4450;SDS011;2238;50.180;9.230;2022-07-12T12:52:47;1.23;;;1.23;;
4450;SDS011;2238;50.180;9.230;2022-07-12T12:55:49;1.93;;;1.67;;
4450;SDS011;2238;50.180;9.230;2022-07-12T12:58:52;1.57;;;1.47;;
4450;SDS011;2238;50.180;9.230;2022-07-12T13:01:53;1.60;;;1.50;;
4450;SDS011;2238;50.180;9.230;2022-07-12T13:04:54;1.23;;;1.20;;
4450;SDS011;2238;50.180;9.230;2022-07-12T13:07:55;6.00;;;1.50;;
4450;SDS011;2238;50.180;9.230;2022-07-12T13:10:55;2.53;;;2.37;;
4450;SDS011;2238;50.180;9.230;2022-07-12T13:14:25;1.57;;;1.47;;
4450;SDS011;2238;50.180;9.230;2022-07-12T13:17:26;1.77;;;1.67;;
4450;SDS011;2238;50.180;9.230;2022-07-12T13:20:27;5.97;;;5.57;;
4450;SDS011;2238;50.180;9.230;2022-07-12T13:23:29;1.67;;;1.57;;
4450;SDS011;2238;50.180;9.230;2022-07-12T13:26:29;1.53;;;1.27;;
4450;SDS011;2238;50.180;9.230;2022-07-12T13:29:30;1.50;;;1.37;;
4450;SDS011;2238;50.180;9.230;2022-07-12T13:32:31;1.57;;;1.47;;
4450;SDS011;2238;50.180;9.230;2022-07-12T13:35:31;1.80;;;1.47;;
4450;SDS011;2238;50.180;9.230;2022-07-12T13:38:32;1.70;;;1.60;;
4450;SDS011;2238;50.180;9.230;2022-07-12T13:41:33;1.70;;;1.60;;
4450;SDS011;2238;50.180;9.230;2022-07-12T13:44:33;2.70;;;1.30;;
4450;SDS011;2238;50.180;9.230;2022-07-12T13:47:34;1.70;;;1.60;;
4450;SDS011;2238;50.180;9.230;2022-07-12T13:50:35;1.57;;;1.47;;
4450;SDS011;2238;50.180;9.230;2022-07-12T13:53:35;1.20;;;1.20;;
4450;SDS011;2238;50.180;9.230;2022-07-12T13:56:36;1.30;;;1.30;;
4450;SDS011;2238;50.180;9.230;2022-07-12T13:59:37;2.77;;;1.70;;
4450;SDS011;2238;50.180;9.230;2022-07-12T14:02:38;1.40;;;1.30;;
4450;SDS011;2238;50.180;9.230;2022-07-12T14:05:41;1.27;;;1.27;;
4450;SDS011;2238;50.180;9.230;2022-07-12T14:08:41;1.33;;;1.23;;
4450;SDS011;2238;50.180;9.230;2022-07-12T14:11:42;1.27;;;1.27;;
4450;SDS011;2238;50.180;9.230;2022-07-12T14:14:42;1.73;;;1.63;;
4450;SDS011;2238;50.180;9.230;2022-07-12T14:18:03;1.47;;;1.37;;
4450;SDS011;2238;50.180;9.230;2022-07-12T14:21:06;1.47;;;1.43;;
4450;SDS011;2238;50.180;9.230;2022-07-12T14:24:07;1.47;;;1.37;;
4450;SDS011;2238;50.180;9.230;2022-07-12T14:27:09;1.30;;;1.30;;
4450;SDS011;2238;50.180;9.230;2022-07-12T14:30:11;3.90;;;1.60;;
4450;SDS011;2238;50.180;9.230;2022-07-12T14:33:13;1.10;;;1.10;;
4450;SDS011;2238;50.180;9.230;2022-07-12T14:36:14;1.40;;;1.30;;
4450;SDS011;2238;50.180;9.230;2022-07-12T14:39:14;1.70;;;1.60;;
4450;SDS011;2238;50.180;9.230;2022-07-12T14:42:15;2.10;;;1.57;;
4450;SDS011;2238;50.180;9.230;2022-07-12T14:45:17;2.40;;;1.30;;
4450;SDS011;2238;50.180;9.230;2022-07-12T14:48:17;1.43;;;1.30;;
4450;SDS011;2238;50.180;9.230;2022-07-12T14:51:18;1.40;;;1.33;;
4450;SDS011;2238;50.180;9.230;2022-07-12T14:54:19;1.57;;;1.47;;
4450;SDS011;2238;50.180;9.230;2022-07-12T14:57:19;1.63;;;1.23;;
4450;SDS011;2238;50.180;9.230;2022-07-12T15:00:20;1.40;;;1.30;;
4450;SDS011;2238;50.180;9.230;2022-07-12T15:03:21;2.10;;;1.90;;
4450;SDS011;2238;50.180;9.230;2022-07-12T15:06:21;1.40;;;1.30;;
4450;SDS011;2238;50.180;9.230;2022-07-12T15:09:22;1.33;;;1.33;;
4450;SDS011;2238;50.180;9.230;2022-07-12T15:12:23;1.80;;;1.70;;
4450;SDS011;2238;50.180;9.230;2022-07-12T15:15:25;1.97;;;1.87;;
4450;SDS011;2238;50.180;9.230;2022-07-12T15:18:25;1.70;;;1.60;;
4450;SDS011;2238;50.180;9.230;2022-07-12T15:21:26;1.53;;;1.53;;
4450;SDS011;2238;50.180;9.230;2022-07-12T15:24:26;1.67;;;1.30;;
4450;SDS011;2238;50.180;9.230;2022-07-12T15:27:27;1.50;;;1.40;;
4450;SDS011;2238;50.180;9.230;2022-07-12T15:30:28;1.57;;;1.37;;
4450;SDS011;2238;50.180;9.230;2022-07-12T15:33:28;1.60;;;1.50;;
4450;SDS011;2238;50.180;9.230;2022-07-12T15:36:29;1.90;;;1.80;;
4450;SDS011;2238;50.180;9.230;2022-07-12T15:39:30;1.30;;;1.10;;
4450;SDS011;2238;50.180;9.230;2022-07-12T15:42:30;1.50;;;1.40;;
4450;SDS011;2238;50.180;9.230;2022-07-12T15:45:31;1.60;;;1.50;;
4450;SDS011;2238;50.180;9.230;2022-07-12T15:48:32;1.43;;;1.33;;
4450;SDS011;2238;50.180;9.230;2022-07-12T15:51:33;1.57;;;1.33;;
4450;SDS011;2238;50.180;9.230;2022-07-12T15:54:52;1.30;;;1.30;;
4450;SDS011;2238;50.180;9.230;2022-07-12T15:57:54;1.50;;;1.40;;
4450;SDS011;2238;50.180;9.230;2022-07-12T16:00:55;1.10;;;1.10;;
4450;SDS011;2238;50.180;9.230;2022-07-12T16:03:57;1.00;;;1.00;;
4450;SDS011;2238;50.180;9.230;2022-07-12T16:06:58;1.30;;;1.20;;
4450;SDS011;2238;50.180;9.230;2022-07-12T16:09:58;0.90;;;0.90;;
4450;SDS011;2238;50.180;9.230;2022-07-12T16:12:59;4.10;;;1.60;;
4450;SDS011;2238;50.180;9.230;2022-07-12T16:16:00;1.47;;;1.37;;
4450;SDS011;2238;50.180;9.230;2022-07-12T16:19:02;1.10;;;1.10;;
4450;SDS011;2238;50.180;9.230;2022-07-12T16:22:03;1.17;;;1.17;;
4450;SDS011;2238;50.180;9.230;2022-07-12T16:25:03;1.50;;;1.40;;
4450;SDS011;2238;50.180;9.230;2022-07-12T16:28:05;1.50;;;0.90;;
4450;SDS011;2238;50.180;9.230;2022-07-12T16:31:07;1.33;;;1.23;;
4450;SDS011;2238;50.180;9.230;2022-07-12T16:34:08;1.13;;;1.10;;
4450;SDS011;2238;50.180;9.230;2022-07-12T16:37:09;1.07;;;1.07;;
4450;SDS011;2238;50.180;9.230;2022-07-12T16:40:10;1.10;;;1.10;;
4450;SDS011;2238;50.180;9.230;2022-07-12T16:43:11;1.53;;;1.33;;
4450;SDS011;2238;50.180;9.230;2022-07-12T16:46:11;2.30;;;1.10;;
4450;SDS011;2238;50.180;9.230;2022-07-12T16:49:12;1.10;;;1.00;;
4450;SDS011;2238;50.180;9.230;2022-07-12T16:52:13;2.07;;;1.00;;
4450;SDS011;2238;50.180;9.230;2022-07-12T16:55:13;1.27;;;1.17;;
4450;SDS011;2238;50.180;9.230;2022-07-12T16:58:14;9.03;;;1.73;;
4450;SDS011;2238;50.180;9.230;2022-07-12T17:01:16;1.00;;;1.00;;
4450;SDS011;2238;50.180;9.230;2022-07-12T17:04:20;1.40;;;1.30;;
4450;SDS011;2238;50.180;9.230;2022-07-12T17:07:22;1.73;;;1.30;;
4450;SDS011;2238;50.180;9.230;2022-07-12T17:10:22;1.60;;;1.50;;
4450;SDS011;2238;50.180;9.230;2022-07-12T17:13:23;1.73;;;1.20;;
4450;SDS011;2238;50.180;9.230;2022-07-12T17:16:23;1.40;;;1.30;;
4450;SDS011;2238;50.180;9.230;2022-07-12T17:19:24;1.63;;;1.50;;
4450;SDS011;2238;50.180;9.230;2022-07-12T17:22:25;2.93;;;1.70;;
4450;SDS011;2238;50.180;9.230;2022-07-12T17:25:25;1.70;;;1.60;;
4450;SDS011;2238;50.180;9.230;2022-07-12T17:28:26;1.40;;;1.23;;
4450;SDS011;2238;50.180;9.230;2022-07-12T17:31:27;4.20;;;1.53;;
4450;SDS011;2238;50.180;9.230;2022-07-12T17:34:28;1.93;;;1.40;;
4450;SDS011;2238;50.180;9.230;2022-07-12T17:37:30;1.80;;;1.53;;
4450;SDS011;2238;50.180;9.230;2022-07-12T17:40:30;2.07;;;1.50;;
4450;SDS011;2238;50.180;9.230;2022-07-12T17:43:31;1.87;;;1.77;;
4450;SDS011;2238;50.180;9.230;2022-07-12T17:46:32;3.10;;;2.00;;
4450;SDS011;2238;50.180;9.230;2022-07-12T17:49:33;1.93;;;1.47;;
4450;SDS011;2238;50.180;9.230;2022-07-12T17:52:34;1.30;;;1.20;;
4450;SDS011;2238;50.180;9.230;2022-07-12T17:55:34;1.67;;;1.57;;
4450;SDS011;2238;50.180;9.230;2022-07-12T17:58:35;1.90;;;1.80;;
4450;SDS011;2238;50.180;9.230;2022-07-12T18:01:39;1.70;;;1.60;;
4450;SDS011;2238;50.180;9.230;2022-07-12T18:04:40;1.73;;;1.63;;
4450;SDS011;2238;50.180;9.230;2022-07-12T18:07:41;1.73;;;1.60;;
4450;SDS011;2238;50.180;9.230;2022-07-12T18:10:41;1.70;;;1.60;;
4450;SDS011;2238;50.180;9.230;2022-07-12T18:13:42;1.87;;;1.77;;
4450;SDS011;2238;50.180;9.230;2022-07-12T18:17:01;1.63;;;1.50;;
4450;SDS011;2238;50.180;9.230;2022-07-12T18:20:20;2.00;;;1.90;;
4450;SDS011;2238;50.180;9.230;2022-07-12T18:23:21;1.73;;;1.63;;
4450;SDS011;2238;50.180;9.230;2022-07-12T18:26:21;2.33;;;1.77;;
4450;SDS011;2238;50.180;9.230;2022-07-12T18:29:22;1.60;;;1.50;;
4450;SDS011;2238;50.180;9.230;2022-07-12T18:32:23;1.60;;;1.50;;
4450;SDS011;2238;50.180;9.230;2022-07-12T18:35:24;1.90;;;1.80;;
4450;SDS011;2238;50.180;9.230;2022-07-12T18:38:25;1.40;;;1.30;;
4450;SDS011;2238;50.180;9.230;2022-07-12T18:41:25;1.83;;;1.60;;
4450;SDS011;2238;50.180;9.230;2022-07-12T18:44:26;5.10;;;1.60;;
4450;SDS011;2238;50.180;9.230;2022-07-12T18:47:27;2.00;;;1.53;;
4450;SDS011;2238;50.180;9.230;2022-07-12T18:50:28;1.80;;;1.60;;
4450;SDS011;2238;50.180;9.230;2022-07-12T18:53:29;2.10;;;1.90;;
4450;SDS011;2238;50.180;9.230;2022-07-12T18:56:29;3.67;;;1.50;;
4450;SDS011;2238;50.180;9.230;2022-07-12T18:59:30;2.57;;;1.33;;
4450;SDS011;2238;50.180;9.230;2022-07-12T19:02:33;1.43;;;1.33;;
4450;SDS011;2238;50.180;9.230;2022-07-12T19:05:34;3.93;;;1.53;;
4450;SDS011;2238;50.180;9.230;2022-07-12T19:08:35;2.73;;;1.70;;